createdAt,value
2023-01-21T00:01:37.693Z,1.16
2023-01-21T00:04:05.921Z,1.21
2023-01-21T00:09:26.237Z,1.08
2023-01-21T00:11:54.774Z,1.01
2023-01-21T00:14:22.927Z,1.16
2023-01-21T00:16:51.245Z,1.19
2023-01-21T00:19:19.049Z,1.17
2023-01-21T00:21:50.083Z,1.32
2023-01-21T00:27:02.991Z,1.14
2023-01-21T00:29:34.259Z,1.01
2023-01-21T00:32:01.918Z,1.02
2023-01-21T00:34:29.515Z,0.90
2023-01-21T00:36:58.536Z,1.20
2023-01-21T00:39:27.169Z,1.24
2023-01-21T00:42:00.434Z,1.20
2023-01-21T00:44:29.627Z,1.33
2023-01-21T00:46:57.299Z,1.32
2023-01-21T00:49:25.998Z,1.36
2023-01-21T00:51:55.641Z,1.27
2023-01-21T00:54:27.426Z,1.20
2023-01-21T00:57:00.429Z,1.12
2023-01-21T01:02:11.752Z,1.05
2023-01-21T01:04:39.984Z,1.10
2023-01-21T01:07:07.738Z,0.94
2023-01-21T01:09:36.691Z,0.74
2023-01-21T01:12:06.888Z,0.88
2023-01-21T01:14:34.453Z,0.72
2023-01-21T01:17:03.410Z,0.78
2023-01-21T01:19:32.398Z,0.72
2023-01-21T01:22:00.038Z,0.47
2023-01-21T01:24:30.022Z,0.48
2023-01-21T01:26:59.952Z,0.48
2023-01-21T01:29:28.655Z,0.56
2023-01-21T01:31:59.188Z,0.57
2023-01-21T01:34:26.776Z,0.52
2023-01-21T01:36:54.341Z,0.47
2023-01-21T01:39:22.271Z,0.44
2023-01-21T01:41:49.868Z,0.36
2023-01-21T01:44:57.200Z,0.32
2023-01-21T01:47:31.292Z,0.28
2023-01-21T01:50:06.477Z,0.08
2023-01-21T01:52:42.317Z,0.09
2023-01-21T01:55:17.700Z,0.17
2023-01-21T01:57:55.613Z,0.13
2023-01-21T02:00:25.044Z,0.04
2023-01-21T02:03:14.588Z,-0.05
2023-01-21T02:05:43.482Z,-0.03
2023-01-21T02:08:11.990Z,-0.05
2023-01-21T02:10:43.281Z,-0.22
2023-01-21T02:13:13.121Z,-0.35
2023-01-21T02:15:48.430Z,-0.26
2023-01-21T02:18:26.513Z,-0.30
2023-01-21T02:21:24.117Z,-0.30
2023-01-21T02:24:20.394Z,-0.40
2023-01-21T02:27:40.408Z,-0.50
2023-01-21T02:30:39.097Z,-0.61
2023-01-21T02:33:26.704Z,-0.59
2023-01-21T02:36:06.792Z,-0.64
2023-01-21T02:38:43.755Z,-0.65
2023-01-21T02:41:23.517Z,-0.76
2023-01-21T02:43:58.239Z,-0.90
2023-01-21T02:46:35.681Z,-0.94
2023-01-21T02:49:08.649Z,-0.82
2023-01-21T02:51:36.599Z,-0.78
2023-01-21T02:54:14.682Z,-0.98
2023-01-21T02:56:43.582Z,-1.10
2023-01-21T02:59:13.082Z,-1.14
2023-01-21T03:01:51.892Z,-1.04
2023-01-21T03:04:43.750Z,-1.11
2023-01-21T03:07:19.617Z,-1.20
2023-01-21T03:09:47.687Z,-1.17
2023-01-21T03:12:27.611Z,-1.14
2023-01-21T03:15:17.008Z,-1.27
2023-01-21T03:17:51.708Z,-1.30
2023-01-21T03:20:25.259Z,-1.33
2023-01-21T03:22:57.728Z,-1.29
2023-01-21T03:25:26.793Z,-1.24
2023-01-21T03:27:56.051Z,-1.34
2023-01-21T03:30:26.485Z,-1.29
2023-01-21T03:32:57.307Z,-1.31
2023-01-21T03:35:29.653Z,-1.37
2023-01-21T03:38:01.381Z,-1.37
2023-01-21T03:40:34.559Z,-1.48
2023-01-21T03:43:03.243Z,-1.42
2023-01-21T03:45:37.711Z,-1.60
2023-01-21T03:48:14.541Z,-1.71
2023-01-21T03:50:48.621Z,-1.80
2023-01-21T03:53:16.416Z,-1.71
2023-01-21T03:55:43.979Z,-1.77
2023-01-21T03:58:11.665Z,-1.87
2023-01-21T04:00:39.416Z,-1.72
2023-01-21T04:03:07.007Z,-1.75
2023-01-21T04:05:35.943Z,-1.62
2023-01-21T04:08:04.844Z,-1.66
2023-01-21T04:10:32.465Z,-1.60
2023-01-21T04:12:59.993Z,-1.57
2023-01-21T04:15:27.636Z,-1.52
2023-01-21T04:17:55.232Z,-1.57
2023-01-21T04:20:22.849Z,-1.59
2023-01-21T04:22:50.439Z,-1.60
2023-01-21T04:25:19.390Z,-1.60
2023-01-21T04:27:46.953Z,-1.71
2023-01-21T04:30:15.065Z,-1.80
2023-01-21T04:32:43.429Z,-1.89
2023-01-21T04:35:11.194Z,-1.80
2023-01-21T04:37:38.745Z,-1.99
2023-01-21T04:40:07.469Z,-2.03
2023-01-21T04:42:38.735Z,-2.01
2023-01-21T04:45:07.960Z,-1.93
2023-01-21T04:47:35.545Z,-1.87
2023-01-21T04:50:04.726Z,-1.77
2023-01-21T04:52:32.351Z,-1.82
2023-01-21T04:55:00.118Z,-2.03
2023-01-21T04:57:27.765Z,-1.92
2023-01-21T04:59:56.774Z,-1.85
2023-01-21T05:02:24.656Z,-1.99
2023-01-21T05:04:52.332Z,-1.88
2023-01-21T05:07:21.678Z,-1.90
2023-01-21T05:09:49.469Z,-1.85
2023-01-21T05:12:17.099Z,-1.95
2023-01-21T05:14:44.931Z,-1.92
2023-01-21T05:17:13.873Z,-1.96
2023-01-21T05:19:41.432Z,-1.98
2023-01-21T05:22:09.061Z,-2.01
2023-01-21T05:24:37.628Z,-1.96
2023-01-21T05:27:05.473Z,-1.94
2023-01-21T05:29:33.003Z,-2.00
2023-01-21T05:32:02.255Z,-1.96
2023-01-21T05:34:31.246Z,-2.00
2023-01-21T05:36:59.213Z,-1.89
2023-01-21T05:39:26.851Z,-1.92
2023-01-21T05:41:54.599Z,-1.99
2023-01-21T05:44:22.429Z,-2.04
2023-01-21T05:46:50.066Z,-2.12
2023-01-21T05:49:17.976Z,-2.06
2023-01-21T05:51:47.208Z,-2.15
2023-01-21T05:54:14.954Z,-2.03
2023-01-21T05:56:42.822Z,-2.11
2023-01-21T05:59:10.625Z,-2.06
2023-01-21T06:01:38.309Z,-2.04
2023-01-21T06:04:06.184Z,-2.08
2023-01-21T06:06:33.842Z,-2.08
2023-01-21T06:09:02.718Z,-2.29
2023-01-21T06:11:30.436Z,-2.25
2023-01-21T06:14:00.199Z,-2.12
2023-01-21T06:16:28.312Z,-2.06
2023-01-21T06:18:55.972Z,-2.08
2023-01-21T06:21:23.642Z,-2.21
2023-01-21T06:23:51.314Z,-2.25
2023-01-21T06:26:20.329Z,-2.09
2023-01-21T06:28:48.130Z,-2.06
2023-01-21T06:31:15.807Z,-2.09
2023-01-21T06:33:44.104Z,-2.03
2023-01-21T06:36:14.279Z,-1.99
2023-01-21T06:38:41.952Z,-2.05
2023-01-21T06:41:09.610Z,-2.18
2023-01-21T06:43:38.771Z,-2.08
2023-01-21T06:46:06.888Z,-2.04
2023-01-21T06:48:34.966Z,-2.03
2023-01-21T06:51:02.939Z,-1.96
2023-01-21T06:53:30.836Z,-1.91
2023-01-21T06:55:58.570Z,-1.92
2023-01-21T06:58:26.362Z,-1.90
2023-01-21T07:00:57.973Z,-1.99
2023-01-21T07:03:26.562Z,-1.94
2023-01-21T07:05:54.202Z,-1.96
2023-01-21T07:08:22.030Z,-2.03
2023-01-21T07:10:49.885Z,-1.97
2023-01-21T07:13:17.557Z,-1.97
2023-01-21T07:15:47.482Z,-2.03
2023-01-21T07:18:16.461Z,-1.99
2023-01-21T07:20:44.084Z,-2.01
2023-01-21T07:23:13.891Z,-2.12
2023-01-21T07:25:41.501Z,-2.03
2023-01-21T07:28:09.805Z,-1.95
2023-01-21T07:30:37.540Z,-2.04
2023-01-21T07:33:09.375Z,-1.87
2023-01-21T07:35:39.712Z,-1.87
2023-01-21T07:38:07.951Z,-1.84
2023-01-21T07:40:36.378Z,-1.76
2023-01-21T07:43:04.090Z,-1.83
2023-01-21T07:45:31.720Z,-1.65
2023-01-21T07:48:00.168Z,-1.60
2023-01-21T07:50:28.457Z,-1.61
2023-01-21T07:52:59.476Z,-1.63
2023-01-21T07:55:27.470Z,-1.61
2023-01-21T07:57:56.796Z,-1.63
2023-01-21T08:00:27.267Z,-1.46
2023-01-21T08:02:55.819Z,-1.43
2023-01-21T08:05:26.720Z,-1.34
2023-01-21T08:07:59.407Z,-1.38
2023-01-21T08:10:27.339Z,-1.41
2023-01-21T08:12:55.006Z,-1.35
2023-01-21T08:15:25.195Z,-1.21
2023-01-21T08:17:52.848Z,-1.22
2023-01-21T08:20:20.744Z,-1.26
2023-01-21T08:22:48.326Z,-1.38
2023-01-21T08:25:17.759Z,-1.19
2023-01-21T08:27:45.587Z,-1.13
2023-01-21T08:30:13.730Z,-1.05
2023-01-21T08:32:41.729Z,-1.01
2023-01-21T08:35:10.282Z,-0.96
2023-01-21T08:37:39.536Z,-0.85
2023-01-21T08:40:09.193Z,-0.97
2023-01-21T08:42:39.404Z,-0.82
2023-01-21T08:45:09.159Z,-0.80
2023-01-21T08:47:38.856Z,-0.70
2023-01-21T08:50:08.042Z,-0.86
2023-01-21T08:52:35.824Z,-0.61
2023-01-21T08:55:03.394Z,-0.63
2023-01-21T08:57:30.900Z,-0.40
2023-01-21T08:59:59.998Z,-0.50
2023-01-21T09:02:27.850Z,-0.39
2023-01-21T09:04:55.609Z,-0.48
2023-01-21T09:07:23.202Z,-0.41
2023-01-21T09:09:50.751Z,-0.53
2023-01-21T09:12:18.396Z,-0.56
2023-01-21T09:14:46.218Z,-0.50
2023-01-21T09:17:15.486Z,-0.30
2023-01-21T09:19:43.179Z,-0.23
2023-01-21T09:22:10.947Z,-0.19
2023-01-21T09:24:38.478Z,-0.19
2023-01-21T09:27:07.806Z,-0.34
2023-01-21T09:29:35.512Z,-0.19
2023-01-21T09:32:07.479Z,-0.24
2023-01-21T09:34:36.678Z,-0.28
2023-01-21T09:37:05.019Z,-0.29
2023-01-21T09:39:33.751Z,-0.24
2023-01-21T09:42:01.514Z,-0.21
2023-01-21T09:44:33.283Z,-0.07
2023-01-21T09:47:05.794Z,-0.16
2023-01-21T09:49:39.129Z,-0.20
2023-01-21T09:52:21.045Z,-0.18
2023-01-21T09:54:49.017Z,-0.33
2023-01-21T09:57:33.618Z,-0.33
2023-01-21T10:00:19.666Z,-0.30
2023-01-21T10:02:55.656Z,-0.16
2023-01-21T10:05:40.059Z,-0.05
2023-01-21T10:08:17.868Z,-0.10
2023-01-21T10:10:51.166Z,0.06
2023-01-21T10:13:41.969Z,0.07
2023-01-21T10:16:19.133Z,0.07
2023-01-21T10:18:49.712Z,0.14
2023-01-21T10:21:29.504Z,0.29
2023-01-21T10:24:02.603Z,0.36
2023-01-21T10:26:33.424Z,0.34
2023-01-21T10:29:01.610Z,0.16
2023-01-21T10:31:30.836Z,0.25
2023-01-21T10:33:58.573Z,0.36
2023-01-21T10:36:47.695Z,0.57
2023-01-21T10:39:23.851Z,0.61
2023-01-21T10:42:08.144Z,0.58
2023-01-21T10:44:44.873Z,0.42
2023-01-21T10:47:19.527Z,0.39
2023-01-21T10:49:55.437Z,0.59
2023-01-21T10:52:30.146Z,0.53
2023-01-21T10:55:03.927Z,0.42
2023-01-21T10:57:46.824Z,0.47
2023-01-21T11:00:22.176Z,0.54
2023-01-21T11:02:55.647Z,0.46
2023-01-21T11:05:25.460Z,0.40
2023-01-21T11:07:55.075Z,0.53
2023-01-21T11:10:25.559Z,0.52
2023-01-21T11:12:55.926Z,0.52
2023-01-21T11:15:24.991Z,0.64
2023-01-21T11:17:56.400Z,0.48
2023-01-21T11:20:30.347Z,0.45
2023-01-21T11:22:59.368Z,0.43
2023-01-21T11:25:40.953Z,0.49
2023-01-21T11:28:24.093Z,0.50
2023-01-21T11:31:03.177Z,0.41
2023-01-21T11:33:30.995Z,0.43
2023-01-21T11:36:13.810Z,0.49
2023-01-21T11:38:43.664Z,0.42
2023-01-21T11:41:23.208Z,0.56
2023-01-21T11:43:52.876Z,0.54
2023-01-21T11:46:39.061Z,0.58
2023-01-21T11:49:27.528Z,0.79
2023-01-21T11:52:19.503Z,0.68
2023-01-21T11:54:49.066Z,0.57
2023-01-21T11:57:30.025Z,0.66
2023-01-21T12:00:08.050Z,0.65
2023-01-21T12:02:40.939Z,0.65
2023-01-21T12:05:17.201Z,0.88
2023-01-21T12:07:50.217Z,0.74
2023-01-21T12:10:30.502Z,0.78
2023-01-21T12:13:11.649Z,0.72
2023-01-21T12:15:51.210Z,0.49
2023-01-21T12:18:35.559Z,0.63
2023-01-21T12:21:06.326Z,0.57
2023-01-21T12:23:57.802Z,0.70
2023-01-21T12:26:37.761Z,0.79
2023-01-21T12:29:22.329Z,0.75
2023-01-21T12:31:53.380Z,0.80
2023-01-21T12:34:26.783Z,0.91
2023-01-21T12:36:59.504Z,1.07
2023-01-21T12:39:32.057Z,1.25
2023-01-21T12:42:08.757Z,1.23
2023-01-21T12:44:40.479Z,1.14
2023-01-21T12:47:19.977Z,1.02
2023-01-21T12:50:04.848Z,1.08
2023-01-21T12:52:41.083Z,1.05
2023-01-21T12:55:19.102Z,1.09
2023-01-21T12:57:55.426Z,1.19
2023-01-21T13:00:26.127Z,1.06
2023-01-21T13:03:01.263Z,1.16
2023-01-21T13:05:35.304Z,1.14
2023-01-21T13:08:21.863Z,1.15
2023-01-21T13:10:55.461Z,1.27
2023-01-21T13:13:32.189Z,1.11
2023-01-21T13:16:05.014Z,1.30
2023-01-21T13:18:36.906Z,1.47
2023-01-21T13:21:12.963Z,1.42
2023-01-21T13:23:46.973Z,1.68
2023-01-21T13:26:22.679Z,1.60
2023-01-21T13:29:00.431Z,1.61
2023-01-21T13:31:33.984Z,1.63
2023-01-21T13:34:15.548Z,1.59
2023-01-21T13:37:00.617Z,1.70
2023-01-21T13:39:36.063Z,1.76
2023-01-21T13:42:17.446Z,1.87
2023-01-21T13:44:57.756Z,1.92
2023-01-21T13:47:37.604Z,1.80
2023-01-21T13:50:19.793Z,1.69
2023-01-21T13:53:14.296Z,1.67
2023-01-21T13:55:55.457Z,1.79
2023-01-21T13:58:36.013Z,1.69
2023-01-21T14:01:09.898Z,1.68
2023-01-21T14:03:42.428Z,1.60
2023-01-21T14:06:16.076Z,1.39
2023-01-21T14:08:49.375Z,1.37
2023-01-21T14:11:20.630Z,1.36
2023-01-21T14:14:24.284Z,1.28
2023-01-21T14:17:09.741Z,1.28
2023-01-21T14:20:24.861Z,1.24
2023-01-21T14:23:08.476Z,1.22
2023-01-21T14:25:50.952Z,1.16
2023-01-21T14:28:28.454Z,1.14
2023-01-21T14:31:05.193Z,1.23
2023-01-21T14:33:44.497Z,1.35
2023-01-21T14:36:18.684Z,1.23
2023-01-21T14:38:56.766Z,1.34
2023-01-21T14:41:24.507Z,1.23
2023-01-21T14:43:53.490Z,1.19
2023-01-21T14:46:33.632Z,1.18
2023-01-21T14:49:07.822Z,1.19
2023-01-21T14:51:38.808Z,1.29
2023-01-21T14:54:12.447Z,1.33
2023-01-21T14:56:40.329Z,1.21
2023-01-21T14:59:24.773Z,1.27
2023-01-21T15:02:03.803Z,1.20
2023-01-21T15:04:37.279Z,1.24
2023-01-21T15:07:14.217Z,1.33
2023-01-21T15:09:46.492Z,1.36
2023-01-21T15:12:20.092Z,1.11
2023-01-21T15:14:51.484Z,1.31
2023-01-21T15:18:03.241Z,1.35
2023-01-21T15:20:50.779Z,1.32
2023-01-21T15:23:21.675Z,1.30
2023-01-21T15:26:18.097Z,1.32
2023-01-21T15:28:47.101Z,1.33
2023-01-21T15:31:42.967Z,1.44
2023-01-21T15:34:15.987Z,1.28
2023-01-21T15:36:50.421Z,1.05
2023-01-21T15:39:23.927Z,1.16
2023-01-21T15:42:05.389Z,1.09
2023-01-21T15:45:05.557Z,1.15
2023-01-21T15:48:10.571Z,1.05
2023-01-21T15:50:46.572Z,1.03
2023-01-21T15:53:34.188Z,1.08
2023-01-21T15:56:16.596Z,1.00
2023-01-21T15:58:53.366Z,0.98
2023-01-21T16:01:29.633Z,1.01
2023-01-21T16:04:13.076Z,1.02
2023-01-21T16:06:49.469Z,1.13
2023-01-21T16:09:30.374Z,1.03
2023-01-21T16:12:10.298Z,0.96
2023-01-21T16:14:52.472Z,1.00
2023-01-21T16:17:30.372Z,1.03
2023-01-21T16:20:01.680Z,1.04
2023-01-21T16:22:33.649Z,1.01
2023-01-21T16:25:07.745Z,1.03
2023-01-21T16:27:36.136Z,1.08
2023-01-21T16:30:06.861Z,1.01
2023-01-21T16:32:37.216Z,1.01
2023-01-21T16:35:05.942Z,1.06
2023-01-21T16:37:34.026Z,1.06
2023-01-21T16:40:21.773Z,1.06
2023-01-21T16:43:07.095Z,1.05
2023-01-21T16:45:34.985Z,1.12
2023-01-21T16:48:02.735Z,1.15
2023-01-21T16:50:32.573Z,1.18
2023-01-21T16:53:08.076Z,1.20
2023-01-21T16:55:46.113Z,1.22
2023-01-21T16:58:28.480Z,1.31
2023-01-21T17:01:06.647Z,1.31
2023-01-21T17:03:34.626Z,1.24
2023-01-21T17:06:06.872Z,1.14
2023-01-21T17:08:35.000Z,1.14
2023-01-21T17:11:08.209Z,1.26
2023-01-21T17:13:40.709Z,1.20
2023-01-21T17:16:19.568Z,1.21
2023-01-21T17:18:52.155Z,1.19
2023-01-21T17:21:27.959Z,1.19
2023-01-21T17:23:59.597Z,1.26
2023-01-21T17:26:30.958Z,1.14
2023-01-21T17:29:00.490Z,1.11
2023-01-21T17:31:30.195Z,1.05
2023-01-21T17:34:20.265Z,1.02
2023-01-21T17:36:50.211Z,0.99
2023-01-21T17:39:52.547Z,0.91
2023-01-21T17:42:23.740Z,1.04
2023-01-21T17:44:56.673Z,1.11
2023-01-21T17:47:28.363Z,1.09
2023-01-21T17:49:58.655Z,1.01
2023-01-21T17:52:26.683Z,0.86
2023-01-21T17:55:13.321Z,0.90
2023-01-21T17:57:42.232Z,1.00
2023-01-21T18:00:26.256Z,0.90
2023-01-21T18:02:54.019Z,0.97
2023-01-21T18:05:21.819Z,0.96
2023-01-21T18:07:50.235Z,0.98
2023-01-21T18:10:21.164Z,0.89
2023-01-21T18:12:50.404Z,0.94
2023-01-21T18:15:19.704Z,1.21
2023-01-21T18:17:50.663Z,1.27
2023-01-21T18:20:20.499Z,1.29
2023-01-21T18:22:50.127Z,1.13
2023-01-21T18:25:18.699Z,1.19
2023-01-21T18:27:51.708Z,1.24
2023-01-21T18:30:23.155Z,1.21
2023-01-21T18:32:50.996Z,1.22
2023-01-21T18:35:20.194Z,1.23
2023-01-21T18:37:47.923Z,1.37
2023-01-21T18:40:17.831Z,1.38
2023-01-21T18:42:46.723Z,1.40
2023-01-21T18:45:15.745Z,1.34
2023-01-21T18:47:44.969Z,1.47
2023-01-21T18:50:18.827Z,1.49
2023-01-21T18:52:47.500Z,1.53
2023-01-21T18:55:16.220Z,1.57
2023-01-21T18:57:46.387Z,1.54
2023-01-21T19:00:22.638Z,1.53
2023-01-21T19:02:53.662Z,1.57
2023-01-21T19:05:21.961Z,1.51
2023-01-21T19:07:49.637Z,1.53
2023-01-21T19:10:23.914Z,1.64
2023-01-21T19:12:51.483Z,1.59
2023-01-21T19:15:22.294Z,1.58
2023-01-21T19:17:52.715Z,1.56
2023-01-21T19:20:22.582Z,1.63
2023-01-21T19:22:51.527Z,1.62
2023-01-21T19:25:19.625Z,1.66
2023-01-21T19:27:51.360Z,1.68
2023-01-21T19:30:22.762Z,1.69
2023-01-21T19:32:53.354Z,1.62
2023-01-21T19:35:28.035Z,1.60
2023-01-21T19:37:56.107Z,1.66
2023-01-21T19:40:26.044Z,1.68
2023-01-21T19:42:54.050Z,1.79
2023-01-21T19:45:23.163Z,1.92
2023-01-21T19:47:52.461Z,1.92
2023-01-21T19:50:23.132Z,1.92
2023-01-21T19:52:52.645Z,1.92
2023-01-21T19:55:22.179Z,1.87
2023-01-21T19:57:55.605Z,1.92
2023-01-21T20:00:25.166Z,1.96
2023-01-21T20:02:54.411Z,1.92
2023-01-21T20:05:22.251Z,1.93
2023-01-21T20:07:51.801Z,2.03
2023-01-21T20:10:24.357Z,1.89
2023-01-21T20:12:52.734Z,1.89
2023-01-21T20:15:24.650Z,1.87
2023-01-21T20:17:56.066Z,1.93
2023-01-21T20:23:16.385Z,1.90
2023-01-21T20:25:46.042Z,1.96
2023-01-21T20:28:19.206Z,1.89
2023-01-21T20:30:49.101Z,1.86
2023-01-21T20:33:27.030Z,1.91
2023-01-21T20:35:57.207Z,1.97
2023-01-21T20:38:28.291Z,1.97
2023-01-21T20:40:56.076Z,1.98
2023-01-21T20:43:23.962Z,1.89
2023-01-21T20:45:53.003Z,1.81
2023-01-21T20:48:25.828Z,1.91
2023-01-21T20:50:54.120Z,1.94
2023-01-21T20:53:22.122Z,1.94
2023-01-21T20:55:52.237Z,1.87
2023-01-21T20:58:21.915Z,1.94
2023-01-21T21:00:50.030Z,2.00
2023-01-21T21:03:19.441Z,1.82
2023-01-21T21:05:49.904Z,1.86
2023-01-21T21:08:20.258Z,1.93
2023-01-21T21:10:49.899Z,1.99
2023-01-21T21:13:17.450Z,2.02
2023-01-21T21:15:46.738Z,1.93
2023-01-21T21:18:14.976Z,2.03
2023-01-21T21:20:43.113Z,1.99
2023-01-21T21:23:14.640Z,1.97
2023-01-21T21:25:45.490Z,1.91
2023-01-21T21:28:15.171Z,1.77
2023-01-21T21:30:43.319Z,1.72
2023-01-21T21:33:16.295Z,1.55
2023-01-21T21:35:44.661Z,1.60
2023-01-21T21:38:15.851Z,1.50
2023-01-21T21:40:46.176Z,1.54
2023-01-21T21:43:38.725Z,1.42
2023-01-21T21:46:25.490Z,1.47
2023-01-21T21:48:53.292Z,1.48
2023-01-21T21:51:22.437Z,1.44
2023-01-21T21:53:51.593Z,1.42
2023-01-21T21:56:21.537Z,1.29
2023-01-21T21:58:50.188Z,1.36
2023-01-21T22:01:20.543Z,1.32
2023-01-21T22:03:48.744Z,1.32
2023-01-21T22:06:18.432Z,1.40
2023-01-21T22:08:46.040Z,1.49
2023-01-21T22:11:17.018Z,1.36
2023-01-21T22:13:47.913Z,1.48
2023-01-21T22:16:18.740Z,1.51
2023-01-21T22:18:46.618Z,1.51
2023-01-21T22:21:16.466Z,1.57
2023-01-21T22:23:44.411Z,1.47
2023-01-21T22:26:14.255Z,1.49
2023-01-21T22:28:44.878Z,1.38
2023-01-21T22:31:14.572Z,1.47
2023-01-21T22:33:42.395Z,1.51
2023-01-21T22:36:11.994Z,1.51
2023-01-21T22:38:40.849Z,1.49
2023-01-21T22:41:10.183Z,1.46
2023-01-21T22:43:41.674Z,1.49
2023-01-21T22:46:13.289Z,1.53
2023-01-21T22:48:41.441Z,1.50
2023-01-21T22:51:11.947Z,1.52
2023-01-21T22:53:40.724Z,1.45
2023-01-21T22:56:08.869Z,1.44
2023-01-21T22:58:37.641Z,1.42
2023-01-21T23:01:06.166Z,1.49
2023-01-21T23:03:35.420Z,1.47
2023-01-21T23:06:06.393Z,1.44
2023-01-21T23:08:34.135Z,1.53
2023-01-21T23:11:02.432Z,1.54
2023-01-21T23:13:30.468Z,1.51
2023-01-21T23:15:58.348Z,1.39
2023-01-21T23:18:27.570Z,1.41
2023-01-21T23:21:01.809Z,1.40
2023-01-21T23:23:35.622Z,1.42
2023-01-21T23:26:03.950Z,1.38
2023-01-21T23:28:31.640Z,1.41
2023-01-21T23:30:59.399Z,1.35
2023-01-21T23:33:27.109Z,1.29
2023-01-21T23:35:56.678Z,1.23
2023-01-21T23:38:27.351Z,1.30
2023-01-21T23:40:58.263Z,1.31
2023-01-21T23:43:26.938Z,1.34
2023-01-21T23:45:56.272Z,1.34
2023-01-21T23:48:26.429Z,1.31
2023-01-21T23:50:54.014Z,1.24
2023-01-21T23:53:23.202Z,1.29
2023-01-21T23:55:51.091Z,1.23
2023-01-21T23:58:18.641Z,1.34
